createdAt,value
2022-09-01T00:00:03.250Z,101061.78
2022-09-01T00:02:31.072Z,101060.28
2022-09-01T00:04:59.531Z,101049.06
2022-09-01T00:07:30.015Z,101053.19
2022-09-01T00:09:57.817Z,101054.44
2022-09-01T00:12:25.798Z,101052.00
2022-09-01T00:14:53.688Z,101055.66
2022-09-01T00:17:22.741Z,101052.25
2022-09-01T00:19:50.490Z,101054.31
2022-09-01T00:22:18.195Z,101052.50
2022-09-01T00:24:45.946Z,101051.75
2022-09-01T00:27:13.652Z,101052.72
2022-09-01T00:29:43.413Z,101055.44
2022-09-01T00:32:11.997Z,101059.81
2022-09-01T00:34:41.080Z,101061.75
2022-09-01T00:37:08.800Z,101053.81
2022-09-01T00:39:36.534Z,101024.97
2022-09-01T00:42:04.563Z,101054.19
2022-09-01T00:44:32.409Z,101049.91
2022-09-01T00:47:00.517Z,101057.13
2022-09-01T00:49:31.598Z,101046.59
2022-09-01T00:52:06.497Z,101053.84
2022-09-01T00:54:35.229Z,101038.66
2022-09-01T00:57:03.674Z,101051.50
2022-09-01T00:59:31.393Z,101051.63
2022-09-01T01:01:59.400Z,100970.44
2022-09-01T01:04:27.221Z,101005.50
2022-09-01T01:07:01.761Z,101057.13
2022-09-01T01:09:33.049Z,101038.31
2022-09-01T01:12:00.886Z,101056.50
2022-09-01T01:14:31.998Z,100958.53
2022-09-01T01:17:00.280Z,101006.56
2022-09-01T01:19:51.825Z,101042.69
2022-09-01T01:22:40.120Z,101047.34
2022-09-01T01:25:09.222Z,101036.94
2022-09-01T01:27:42.870Z,101048.53
2022-09-01T01:30:12.339Z,101041.47
2022-09-01T01:32:43.250Z,101045.03
2022-09-01T01:35:14.882Z,101043.41
2022-09-01T01:37:48.814Z,101042.56
2022-09-01T01:40:19.886Z,100973.81
2022-09-01T01:42:49.473Z,100992.75
2022-09-01T01:45:18.367Z,101012.69
2022-09-01T01:47:53.407Z,101044.22
2022-09-01T01:50:21.679Z,101050.47
2022-09-01T01:52:49.375Z,101045.19
2022-09-01T01:55:29.074Z,101049.94
2022-09-01T01:57:56.914Z,101036.97
2022-09-01T02:00:30.128Z,101051.91
2022-09-01T02:02:58.161Z,101050.22
2022-09-01T02:05:27.276Z,101044.09
2022-09-01T02:07:59.915Z,101008.50
2022-09-01T02:10:30.980Z,101008.09
2022-09-01T02:13:07.269Z,101056.06
2022-09-01T02:15:43.772Z,101047.25
2022-09-01T02:18:11.647Z,101046.28
2022-09-01T02:20:40.561Z,101048.13
2022-09-01T02:23:10.901Z,101007.50
2022-09-01T02:25:59.038Z,101007.38
2022-09-01T02:28:31.951Z,101046.88
2022-09-01T02:31:02.720Z,100986.31
2022-09-01T02:33:30.776Z,101042.81
2022-09-01T02:35:59.413Z,101041.13
2022-09-01T02:38:29.180Z,101046.50
2022-09-01T02:40:58.600Z,100960.59
2022-09-01T02:43:28.589Z,100985.56
2022-09-01T02:45:59.857Z,101028.28
2022-09-01T02:48:33.123Z,101012.25
2022-09-01T02:51:01.997Z,101031.91
2022-09-01T02:53:29.779Z,101032.03
2022-09-01T02:55:59.569Z,100940.19
2022-09-01T02:58:27.415Z,100975.06
2022-09-01T03:00:56.595Z,100960.13
2022-09-01T03:03:24.430Z,101020.81
2022-09-01T03:05:56.286Z,100969.69
2022-09-01T03:08:25.005Z,100960.72
2022-09-01T03:10:53.998Z,101024.34
2022-09-01T03:13:23.989Z,101015.56
2022-09-01T03:15:51.737Z,100964.28
2022-09-01T03:18:19.703Z,100953.88
2022-09-01T03:20:47.854Z,101020.06
2022-09-01T03:23:19.397Z,101018.38
2022-09-01T03:25:47.859Z,100981.84
2022-09-01T03:28:15.878Z,100937.31
2022-09-01T03:30:49.067Z,101024.81
2022-09-01T03:33:17.073Z,101017.22
2022-09-01T03:35:45.185Z,101024.31
2022-09-01T03:38:13.716Z,101021.63
2022-09-01T03:40:41.581Z,101007.81
2022-09-01T03:43:10.795Z,100940.88
2022-09-01T03:45:38.983Z,101015.28
2022-09-01T03:48:09.038Z,101017.84
2022-09-01T03:50:39.117Z,101019.78
2022-09-01T03:53:06.634Z,101013.81
2022-09-01T03:55:35.061Z,100942.91
2022-09-01T03:58:06.622Z,101014.88
2022-09-01T04:00:39.961Z,100954.19
2022-09-01T04:03:10.352Z,100962.41
2022-09-01T04:05:37.895Z,101015.09
2022-09-01T04:08:06.843Z,101019.75
2022-09-01T04:10:36.038Z,100977.22
2022-09-01T04:13:04.435Z,101026.09
2022-09-01T04:15:34.288Z,100994.03
2022-09-01T04:18:10.110Z,101026.84
2022-09-01T04:20:48.408Z,101029.53
2022-09-01T04:23:26.150Z,101008.69
2022-09-01T04:25:55.481Z,100970.50
2022-09-01T04:28:26.647Z,101031.44
2022-09-01T04:30:56.556Z,101034.03
2022-09-01T04:33:25.732Z,101033.41
2022-09-01T04:35:56.710Z,101029.94
2022-09-01T04:38:25.423Z,100978.16
2022-09-01T04:40:53.611Z,100983.94
2022-09-01T04:43:21.290Z,101029.09
2022-09-01T04:45:52.062Z,101037.25
2022-09-01T04:48:20.766Z,101002.50
2022-09-01T04:50:49.691Z,101037.38
2022-09-01T04:53:19.598Z,101034.31
2022-09-01T04:55:49.490Z,100928.50
2022-09-01T04:58:18.679Z,100986.53
2022-09-01T05:00:48.248Z,101041.38
2022-09-01T05:03:17.235Z,100969.75
2022-09-01T05:05:46.338Z,101031.56
2022-09-01T05:08:18.096Z,101033.50
2022-09-01T05:10:53.725Z,100940.75
2022-09-01T05:13:23.654Z,101022.47
2022-09-01T05:16:01.893Z,101023.31
2022-09-01T05:18:29.757Z,101028.91
2022-09-01T05:20:57.528Z,101022.81
2022-09-01T05:23:26.749Z,101023.16
2022-09-01T05:25:56.271Z,101025.63
2022-09-01T05:28:25.383Z,101029.25
2022-09-01T05:30:54.324Z,101026.34
2022-09-01T05:33:22.195Z,101032.59
2022-09-01T05:35:55.539Z,101035.16
2022-09-01T05:38:25.645Z,100971.94
2022-09-01T05:40:58.466Z,101036.47
2022-09-01T05:43:27.883Z,100994.94
2022-09-01T05:46:06.475Z,101034.41
2022-09-01T05:48:39.638Z,101039.22
2022-09-01T05:51:22.320Z,101035.16
2022-09-01T05:53:58.935Z,101038.59
2022-09-01T05:56:28.175Z,101042.00
2022-09-01T06:01:50.247Z,101024.91
2022-09-01T06:04:18.414Z,101027.13
2022-09-01T06:07:04.099Z,101004.00
2022-09-01T06:09:35.243Z,101024.00
2022-09-01T06:12:04.778Z,101017.69
2022-09-01T06:14:32.471Z,101027.09
2022-09-01T06:17:00.782Z,101022.25
2022-09-01T06:19:28.580Z,101030.81
2022-09-01T06:21:56.909Z,101018.25
2022-09-01T06:24:24.873Z,101022.94
2022-09-01T06:26:53.246Z,101021.72
2022-09-01T06:29:22.364Z,101020.31
2022-09-01T06:31:51.831Z,101020.81
2022-09-01T06:34:20.049Z,101020.59
2022-09-01T06:36:51.749Z,101015.84
2022-09-01T06:39:20.675Z,101017.44
2022-09-01T06:41:52.967Z,101025.16
2022-09-01T06:44:23.448Z,101024.91
2022-09-01T06:46:51.824Z,101017.63
2022-09-01T06:49:21.527Z,101027.13
2022-09-01T06:51:52.800Z,101023.50
2022-09-01T06:54:21.727Z,101034.84
2022-09-01T06:56:51.758Z,101032.91
2022-09-01T06:59:23.000Z,101033.53
2022-09-01T07:01:52.319Z,101032.44
2022-09-01T07:04:22.132Z,101019.94
2022-09-01T07:07:53.104Z,101034.03
2022-09-01T07:09:50.164Z,101042.78
2022-09-01T07:12:28.796Z,101043.50
2022-09-01T07:17:49.064Z,100993.69
2022-09-01T07:20:24.560Z,101041.50
2022-09-01T07:23:08.156Z,101047.81
2022-09-01T07:26:01.256Z,101049.34
2022-09-01T07:38:46.943Z,101055.56
2022-09-01T07:39:49.324Z,101044.34
2022-09-01T07:45:26.123Z,101042.19
2022-09-01T07:47:56.097Z,101015.66
2022-09-01T07:50:38.782Z,101050.06
2022-09-01T07:53:08.583Z,101046.94
2022-09-01T07:55:36.557Z,101039.84
2022-09-01T07:58:04.982Z,100980.63
2022-09-01T08:00:34.309Z,101045.22
2022-09-01T08:03:03.412Z,101047.69
2022-09-01T08:05:31.928Z,101045.91
2022-09-01T08:08:00.101Z,101041.63
2022-09-01T08:10:27.826Z,101046.94
2022-09-01T08:12:56.856Z,101044.34
2022-09-01T08:15:41.691Z,101049.53
2022-09-01T08:18:14.785Z,101037.56
2022-09-01T08:20:45.496Z,101039.34
2022-09-01T08:23:14.893Z,101043.47
2022-09-01T08:25:44.134Z,100985.88
2022-09-01T08:28:12.145Z,100971.03
2022-09-01T08:30:39.977Z,100998.19
2022-09-01T08:33:11.001Z,101043.34
2022-09-01T08:35:40.722Z,100975.13
2022-09-01T08:38:08.480Z,101044.41
2022-09-01T08:40:36.270Z,101051.41
2022-09-01T08:43:17.752Z,101041.63
2022-09-01T08:45:48.572Z,101047.09
2022-09-01T08:51:14.890Z,101039.69
2022-09-01T08:53:45.762Z,101027.59
2022-09-01T08:56:13.635Z,100994.16
2022-09-01T08:58:41.327Z,101047.91
2022-09-01T09:01:11.979Z,100995.03
2022-09-01T09:03:42.661Z,100962.66
2022-09-01T09:06:17.935Z,100995.13
2022-09-01T09:08:57.896Z,101044.16
2022-09-01T09:11:41.530Z,101035.34
2022-09-01T09:14:12.453Z,101036.81
2022-09-01T09:16:42.685Z,101017.66
2022-09-01T09:19:12.474Z,101030.97
2022-09-01T09:21:42.946Z,101030.25
2022-09-01T09:24:12.062Z,101038.97
2022-09-01T09:26:43.100Z,101038.59
2022-09-01T09:29:11.560Z,101045.19
2022-09-01T09:31:43.719Z,101046.22
2022-09-01T09:34:18.816Z,100968.69
2022-09-01T09:36:54.583Z,101039.28
2022-09-01T09:39:23.271Z,100788.09
2022-09-01T09:42:04.507Z,100979.09
2022-09-01T09:44:33.941Z,101036.81
2022-09-01T09:47:03.324Z,101036.72
2022-09-01T09:49:35.111Z,101035.97
2022-09-01T09:52:16.649Z,101030.69
2022-09-01T09:54:58.663Z,101037.09
2022-09-01T09:57:26.385Z,101030.09
2022-09-01T10:00:00.545Z,101021.66
2022-09-01T10:02:32.771Z,100976.28
2022-09-01T10:05:01.617Z,101011.34
2022-09-01T10:07:33.088Z,101029.22
2022-09-01T10:10:01.708Z,100993.13
2022-09-01T10:12:29.816Z,101005.38
2022-09-01T10:14:59.555Z,101009.19
2022-09-01T10:17:36.192Z,101012.22
2022-09-01T10:20:07.609Z,100962.72
2022-09-01T10:22:41.311Z,101001.09
2022-09-01T10:25:10.527Z,101007.47
2022-09-01T10:27:39.274Z,101001.56
2022-09-01T10:30:23.966Z,101001.69
2022-09-01T10:32:56.009Z,100998.53
2022-09-01T10:35:26.079Z,100987.66
2022-09-01T10:37:55.892Z,100941.94
2022-09-01T10:40:49.009Z,100987.94
2022-09-01T10:43:38.345Z,100945.81
2022-09-01T10:46:15.924Z,100987.94
2022-09-01T10:48:52.164Z,100988.31
2022-09-01T10:51:51.506Z,100991.88
2022-09-01T10:54:55.741Z,100984.84
2022-09-01T10:57:44.498Z,100982.63
2022-09-01T11:04:00.618Z,100989.88
2022-09-01T11:06:34.162Z,100939.53
2022-09-01T11:09:03.636Z,100907.53
2022-09-01T11:11:32.798Z,100905.69
2022-09-01T11:14:04.128Z,100976.13
2022-09-01T11:16:51.684Z,100976.88
2022-09-01T11:19:30.200Z,100954.44
2022-09-01T11:22:42.867Z,100966.63
2022-09-01T11:25:39.854Z,100972.00
2022-09-01T11:28:36.220Z,100964.41
2022-09-01T11:31:20.412Z,100961.31
2022-09-01T11:34:13.924Z,100957.53
2022-09-01T11:36:54.348Z,100962.06
2022-09-01T11:39:30.012Z,100964.03
2022-09-01T11:42:04.526Z,100918.16
2022-09-01T11:44:35.711Z,100954.75
2022-09-01T11:47:09.517Z,100953.03
2022-09-01T11:49:40.911Z,100871.50
2022-09-01T11:52:08.648Z,100965.88
2022-09-01T11:54:40.518Z,100891.22
2022-09-01T11:57:25.341Z,100958.72
2022-09-01T11:59:53.120Z,100962.28
2022-09-01T12:02:25.464Z,100968.53
2022-09-01T12:04:54.096Z,100956.88
2022-09-01T12:07:36.524Z,100868.72
2022-09-01T12:10:04.632Z,100963.84
2022-09-01T12:12:34.550Z,100916.88
2022-09-01T12:15:06.809Z,100935.75
2022-09-01T12:17:36.218Z,100960.19
2022-09-01T12:20:28.866Z,100963.72
2022-09-01T12:22:58.451Z,100951.56
2022-09-01T12:25:27.231Z,100941.91
2022-09-01T12:27:55.302Z,100944.81
2022-09-01T12:30:23.166Z,100918.84
2022-09-01T12:32:52.245Z,100950.53
2022-09-01T12:35:22.725Z,100844.94
2022-09-01T12:37:51.855Z,100946.47
2022-09-01T12:40:24.486Z,100945.09
2022-09-01T12:42:53.039Z,100938.72
2022-09-01T12:45:39.388Z,100944.00
2022-09-01T12:48:08.622Z,100837.91
2022-09-01T12:50:56.070Z,100945.94
2022-09-01T12:53:30.360Z,100939.81
2022-09-01T12:56:25.121Z,100937.41
2022-09-01T12:58:54.568Z,100898.00
2022-09-01T13:01:30.194Z,100933.34
2022-09-01T13:04:16.397Z,100929.19
2022-09-01T13:06:44.127Z,100925.91
2022-09-01T13:09:11.839Z,100918.94
2022-09-01T13:14:27.626Z,100917.47
2022-09-01T13:16:55.353Z,100911.50
2022-09-01T13:19:28.868Z,100906.75
2022-09-01T13:21:58.449Z,100905.63
2022-09-01T13:24:30.259Z,100897.25
2022-09-01T13:29:47.449Z,100893.81
2022-09-01T13:32:19.617Z,100894.53
2022-09-01T13:34:50.648Z,100896.53
2022-09-01T13:37:19.285Z,100882.50
2022-09-01T13:39:47.349Z,100883.75
2022-09-01T13:42:16.251Z,100876.34
2022-09-01T13:44:44.440Z,100891.25
2022-09-01T13:50:10.879Z,100879.66
2022-09-01T13:52:39.554Z,100870.97
2022-09-01T13:55:08.291Z,100876.25
2022-09-01T13:57:36.832Z,100871.84
2022-09-01T14:00:07.645Z,100867.88
2022-09-01T14:02:35.394Z,100867.88
2022-09-01T14:05:04.807Z,100872.72
2022-09-01T14:07:32.642Z,100872.72
2022-09-01T14:10:00.537Z,100861.94
2022-09-01T14:12:29.999Z,100852.03
2022-09-01T14:15:17.058Z,100860.97
2022-09-01T14:17:45.929Z,100779.47
2022-09-01T14:20:16.309Z,100844.66
2022-09-01T14:22:44.185Z,100854.91
2022-09-01T14:25:12.100Z,100853.81
2022-09-01T14:27:41.091Z,100849.53
2022-09-01T14:30:10.293Z,100822.78
2022-09-01T14:32:38.377Z,100855.78
2022-09-01T14:35:08.228Z,100845.13
2022-09-01T14:37:37.855Z,100850.66
2022-09-01T14:40:07.565Z,100843.56
2022-09-01T14:42:37.147Z,100841.00
2022-09-01T14:45:05.078Z,100835.63
2022-09-01T14:47:33.159Z,100841.84
2022-09-01T14:50:01.001Z,100845.41
2022-09-01T14:52:28.801Z,100839.00
2022-09-01T14:54:59.489Z,100828.50
2022-09-01T14:57:28.645Z,100829.63
2022-09-01T14:59:57.887Z,100823.09
2022-09-01T15:02:26.078Z,100837.59
2022-09-01T15:04:53.859Z,100834.03
2022-09-01T15:07:21.617Z,100831.19
2022-09-01T15:09:49.824Z,100839.75
2022-09-01T15:12:19.935Z,100824.84
2022-09-01T15:14:47.636Z,100831.22
2022-09-01T15:17:15.372Z,100822.41
2022-09-01T15:19:43.108Z,100822.28
2022-09-01T15:22:14.494Z,100827.69
2022-09-01T15:24:43.120Z,100774.81
2022-09-01T15:27:11.531Z,100818.88
2022-09-01T15:29:45.627Z,100703.31
2022-09-01T15:32:15.248Z,100814.75
2022-09-01T15:34:48.686Z,100820.28
2022-09-01T15:37:16.873Z,100821.28
2022-09-01T15:39:44.566Z,100821.41
2022-09-01T15:42:12.593Z,100811.63
2022-09-01T15:44:41.727Z,100758.31
2022-09-01T15:47:09.455Z,100809.34
2022-09-01T15:49:37.185Z,100816.56
2022-09-01T15:52:04.971Z,100732.97
2022-09-01T15:54:32.669Z,100807.91
2022-09-01T15:57:00.386Z,100805.34
2022-09-01T15:59:29.296Z,100810.88
2022-09-01T16:01:58.497Z,100808.03
2022-09-01T16:04:27.880Z,100802.63
2022-09-01T16:06:56.794Z,100805.06
2022-09-01T16:09:25.853Z,100802.97
2022-09-01T16:11:53.600Z,100714.53
2022-09-01T16:14:23.477Z,100801.25
2022-09-01T16:16:54.723Z,100792.47
2022-09-01T16:19:28.950Z,100793.94
2022-09-01T16:22:01.834Z,100794.97
2022-09-01T16:24:30.029Z,100801.06
2022-09-01T16:26:58.235Z,100790.44
2022-09-01T16:29:30.100Z,100748.91
2022-09-01T16:31:57.821Z,100792.13
2022-09-01T16:34:28.600Z,100790.44
2022-09-01T16:37:00.592Z,100780.47
2022-09-01T16:39:31.390Z,100789.00
2022-09-01T16:42:05.430Z,100799.66
2022-09-01T16:47:02.362Z,100718.09
2022-09-01T16:49:33.851Z,100782.59
2022-09-01T16:52:04.353Z,100789.28
2022-09-01T16:54:38.619Z,100792.69
2022-09-01T16:57:08.363Z,100752.19
2022-09-01T16:59:38.794Z,100790.56
2022-09-01T17:02:18.570Z,100778.03
2022-09-01T17:04:48.633Z,100727.72
2022-09-01T17:07:16.542Z,100783.44
2022-09-01T17:09:45.185Z,100783.03
2022-09-01T17:12:23.523Z,100730.47
2022-09-01T17:14:55.335Z,100767.84
2022-09-01T17:17:35.349Z,100784.47
2022-09-01T17:20:05.174Z,100776.25
2022-09-01T17:22:33.006Z,100785.47
2022-09-01T17:27:33.999Z,100772.81
2022-09-01T17:30:02.068Z,100782.34
2022-09-01T17:32:41.441Z,100792.13
2022-09-01T17:35:20.938Z,100771.25
2022-09-01T17:38:03.861Z,100786.88
2022-09-01T17:40:40.446Z,100741.53
2022-09-01T17:43:10.470Z,100793.13
2022-09-01T17:45:51.143Z,100796.94
2022-09-01T17:48:20.791Z,100798.19
2022-09-01T17:51:01.634Z,100799.31
2022-09-01T17:53:35.647Z,100804.13
2022-09-01T17:56:05.719Z,100802.56
2022-09-01T17:58:40.679Z,100804.97
2022-09-01T18:01:10.491Z,100798.69
2022-09-01T18:03:47.132Z,100747.69
2022-09-01T18:06:21.383Z,100787.47
2022-09-01T18:08:49.929Z,100793.03
2022-09-01T18:11:23.085Z,100783.50
2022-09-01T18:13:53.977Z,100794.28
2022-09-01T18:16:23.035Z,100752.19
2022-09-01T18:18:51.139Z,100799.38
2022-09-01T18:21:21.336Z,100802.09
2022-09-01T18:23:50.484Z,100804.06
2022-09-01T18:26:22.709Z,100762.75
2022-09-01T18:28:52.807Z,100767.09
2022-09-01T18:31:34.050Z,100783.94
2022-09-01T18:34:06.474Z,100798.88
2022-09-01T18:36:43.421Z,100808.84
2022-09-01T18:39:13.132Z,100813.38
2022-09-01T18:41:55.706Z,100808.25
2022-09-01T18:44:45.646Z,100762.41
2022-09-01T18:47:14.074Z,100814.72
2022-09-01T18:49:49.051Z,100749.44
2022-09-01T18:52:32.273Z,100804.44
2022-09-01T18:55:03.758Z,100813.44
2022-09-01T18:57:36.485Z,100827.06
2022-09-01T19:00:17.827Z,100798.72
2022-09-01T19:02:55.715Z,100816.41
2022-09-01T19:05:33.151Z,100778.13
2022-09-01T19:08:07.662Z,100817.78
2022-09-01T19:10:36.860Z,100826.88
2022-09-01T19:13:08.755Z,100826.13
2022-09-01T19:15:40.487Z,100771.91
2022-09-01T19:18:21.650Z,100828.22
2022-09-01T19:20:51.128Z,100830.22
2022-09-01T19:23:24.277Z,100831.19
2022-09-01T19:25:52.340Z,100766.50
2022-09-01T19:28:22.174Z,100821.63
2022-09-01T19:30:50.833Z,100829.16
2022-09-01T19:33:21.481Z,100827.00
2022-09-01T19:35:49.657Z,100837.38
2022-09-01T19:38:20.115Z,100790.31
2022-09-01T19:40:49.459Z,100839.38
2022-09-01T19:43:18.204Z,100753.25
2022-09-01T19:45:56.090Z,100836.94
2022-09-01T19:48:26.546Z,100837.13
2022-09-01T19:50:55.799Z,100841.72
2022-09-01T19:53:32.213Z,100840.03
2022-09-01T19:56:04.075Z,100834.31
2022-09-01T19:58:36.530Z,100776.50
2022-09-01T20:01:05.686Z,100840.69
2022-09-01T20:03:35.175Z,100775.56
2022-09-01T20:06:04.538Z,100808.31
2022-09-01T20:08:35.146Z,100854.41
2022-09-01T20:11:07.228Z,100767.19
2022-09-01T20:13:53.544Z,100830.25
2022-09-01T20:16:25.614Z,100850.25
2022-09-01T20:18:54.735Z,100847.69
2022-09-01T20:21:22.502Z,100846.13
2022-09-01T20:23:54.008Z,100770.97
2022-09-01T20:26:26.869Z,100849.81
2022-09-01T20:28:56.770Z,100855.47
2022-09-01T20:31:26.813Z,100859.13
2022-09-01T20:33:55.669Z,100855.00
2022-09-01T20:36:26.177Z,100855.13
2022-09-01T20:39:13.598Z,100843.03
2022-09-01T20:41:44.526Z,100849.13
2022-09-01T20:44:35.935Z,100849.00
2022-09-01T20:47:06.032Z,100845.00
2022-09-01T20:49:34.507Z,100851.38
2022-09-01T20:52:06.440Z,100846.22
2022-09-01T20:54:37.125Z,100845.34
2022-09-01T20:57:14.730Z,100848.03
2022-09-01T20:59:46.258Z,100805.63
2022-09-01T21:02:23.490Z,100851.84
2022-09-01T21:04:56.898Z,100852.00
2022-09-01T21:07:31.464Z,100844.31
2022-09-01T21:10:03.037Z,100830.63
2022-09-01T21:12:36.431Z,100794.75
2022-09-01T21:15:14.090Z,100772.09
2022-09-01T21:17:44.841Z,100845.00
2022-09-01T21:20:15.182Z,100839.88
2022-09-01T21:22:42.898Z,100847.00
2022-09-01T21:25:10.964Z,100844.44
2022-09-01T21:27:44.676Z,100847.13
2022-09-01T21:30:14.034Z,100850.06
2022-09-01T21:32:41.907Z,100848.34
2022-09-01T21:35:10.914Z,100851.03
2022-09-01T21:37:38.615Z,100851.16
2022-09-01T21:40:07.242Z,100852.03
2022-09-01T21:42:37.348Z,100850.31
2022-09-01T21:45:06.898Z,100855.97
2022-09-01T21:47:34.732Z,100854.22
2022-09-01T21:50:02.507Z,100854.22
2022-09-01T21:52:30.217Z,100853.13
2022-09-01T21:54:57.975Z,100854.22
2022-09-01T21:57:25.678Z,100858.78
2022-09-01T21:59:53.392Z,100857.91
2022-09-01T22:02:22.769Z,100856.22
2022-09-01T22:04:56.252Z,100853.66
2022-09-01T22:07:23.950Z,100853.66
2022-09-01T22:09:51.740Z,100854.75
2022-09-01T22:12:19.436Z,100852.19
2022-09-01T22:14:47.182Z,100838.97
2022-09-01T22:17:14.891Z,100850.47
2022-09-01T22:19:43.946Z,100850.47
2022-09-01T22:22:12.551Z,100846.59
2022-09-01T22:24:40.270Z,100848.44
2022-09-01T22:27:07.995Z,100838.66
2022-09-01T22:29:35.753Z,100852.94
2022-09-01T22:32:04.035Z,100846.00
2022-09-01T22:34:33.710Z,100802.03
2022-09-01T22:37:02.754Z,100849.53
2022-09-01T22:39:30.558Z,100846.84
2022-09-01T22:41:58.260Z,100847.81
2022-09-01T22:44:25.989Z,100838.91
2022-09-01T22:46:53.697Z,100850.63
2022-09-01T22:49:21.425Z,100848.06
2022-09-01T22:51:49.106Z,100847.25
2022-09-01T22:54:18.289Z,100848.06
2022-09-01T22:56:46.079Z,100850.06
2022-09-01T22:59:15.383Z,100778.00
2022-09-01T23:01:45.083Z,100843.06
2022-09-01T23:04:13.742Z,100825.50
2022-09-01T23:06:43.760Z,100841.38
2022-09-01T23:09:11.267Z,100840.06
2022-09-01T23:11:40.366Z,100843.44
2022-09-01T23:14:08.121Z,100844.44
2022-09-01T23:16:35.899Z,100788.63
2022-09-01T23:19:03.717Z,100841.00
2022-09-01T23:21:32.860Z,100834.06
2022-09-01T23:24:00.689Z,100833.19
2022-09-01T23:26:28.670Z,100838.56
2022-09-01T23:28:57.777Z,100822.44
2022-09-01T23:31:27.449Z,100832.38
2022-09-01T23:33:55.325Z,100834.19
2022-09-01T23:36:24.408Z,100794.38
2022-09-01T23:38:53.031Z,100831.38
2022-09-01T23:41:23.602Z,100831.13
2022-09-01T23:43:51.433Z,100787.94
2022-09-01T23:46:21.282Z,100826.00
2022-09-01T23:48:49.056Z,100816.34
2022-09-01T23:51:18.071Z,100825.28
2022-09-01T23:53:46.542Z,100796.81
2022-09-01T23:56:16.076Z,100778.28
2022-09-01T23:58:43.942Z,100817.31
